Jaipur, India

1:56 AM IST on September 03, 2014 (GMT +0530)
Jaipur | Change Station
CLOSE
Current Station
Airport
Location: Jaipur,
Elevation: 1280 ft
Nearby Weather Stations

Elev 1280 ft 26.82 °N, 75.81 °E | Updated 56 minutes ago

Overcast
Overcast
79 °F
Feels Like 79 °F
N
9
Wind Variable Wind from ENE

Today
High -- | Low -- °F
--% Chance of Precip.
Yesterday
High -- | Low -- °F
Precip. -- in
6:06 AM 6:45 PM
First Quarter, 54% visible
Pressure 29.62 in
Visibility 1.6 miles
Clouds Scattered Clouds 1000 ft
Scattered Clouds 2500 ft
Few 3000 ft
Overcast 9000 ft
Dew Point 77 °F
Humidity 94%
Rainfall 0.00 in
Snow Depth Not available.
UV 0 out of 12
Pollen Not available.
Air Quality Not available.
Flu Activity Not available.
METAR VIJP 021930Z 07008KT 2500 BR SCT010 SCT025 FEW030CB OVC090 26/25 Q1003 TEMPO 1500 TSRA

More Conditions Fewer Conditions

Pressure 29.62 in
Visibility 1.6 miles
Clouds Scattered Clouds 1000 ft
Scattered Clouds 2500 ft
Few 3000 ft
Overcast 9000 ft
Dew Point 77 °F
Humidity 94%
Rainfall 0.00 in
Snow Depth Not available.
UV 0 out of 12
Pollen Not available.
Air Quality Not available.
Flu Activity Not available.
METAR VIJP 021930Z 07008KT 2500 BR SCT010 SCT025 FEW030CB OVC090 26/25 Q1003 TEMPO 1500 TSRA

More Conditions Fewer Conditions

10-Day Weather Forecast

Almanac

Astronomy

Sep. 03, 2014 Rise Set
Actual Time 6:06 AM IST 6:45 PM IST
Civil Twilight 5:43 AM IST 7:08 PM IST
Nautical Twilight 5:15 AM IST 7:36 PM IST
Astronomical Twilight 4:47 AM IST 8:04 PM IST
Moon 1:43 PM IST (9/3) No Moon Set
Length of Visible Light 13h 25m
Length of Day
12h 38m
Tomorrow will be 1m 32s shorter.
First Quarter, 54% of the Moon is Illuminated
Sep 2
First Quarter
Sep 8
Full
Sep 15
Last Quarter
Sep 24
New
Oct 1
First Quarter

Yesterday's Extremes

Country Highs Country Lows

Community

WunderPhotos

Upload Photos

1,749,757 photos uploaded!

WunderBlogs® & News

By Dr. Jeff Masters
Director of Meteorology, Weather Underground
By Kari Strenfel
Meteorologist, Weather Underground
By Christopher C. Burt
Weather Historian, Weather Underground
September 2, 2014
September 2, 2014
September 2, 2014

Nearby

Snow Depth

Not available.

Earthquake Activity

City Distance Mag. Time & Date
No recent earthquake activity has been reported nearby.
Minimum magnitude displayed is 2.5.

Coastal Water Temperatures

Place Temperature
No Stations Reporting

Nearby Weather Stations